createdAt,value
2022-12-01T00:01:06.380Z,102835.97
2022-12-01T00:03:33.549Z,102821.41
2022-12-01T00:06:00.341Z,102821.66
2022-12-01T00:08:27.606Z,102828.66
2022-12-01T00:10:54.558Z,102820.31
2022-12-01T00:13:21.728Z,102834.59
2022-12-01T00:15:48.187Z,102830.56
2022-12-01T00:18:14.624Z,102830.03
2022-12-01T00:20:41.134Z,102831.38
2022-12-01T00:23:08.073Z,102814.09
2022-12-01T00:25:34.509Z,102828.66
2022-12-01T00:28:01.043Z,102821.13
2022-12-01T00:30:27.461Z,102823.00
2022-12-01T00:32:53.946Z,102814.91
2022-12-01T00:35:20.346Z,102821.66
2022-12-01T00:37:46.849Z,102810.59
2022-12-01T00:40:13.881Z,102817.88
2022-12-01T00:42:40.813Z,102817.63
2022-12-01T00:45:07.740Z,102814.38
2022-12-01T00:47:34.202Z,102818.69
2022-12-01T00:50:00.617Z,102811.13
2022-12-01T00:52:27.081Z,102811.44
2022-12-01T00:54:53.586Z,102809.28
2022-12-01T00:57:20.123Z,102813.84
2022-12-01T00:59:47.232Z,102810.88
2022-12-01T01:02:14.039Z,102818.69
2022-12-01T01:04:40.564Z,102816.53
2022-12-01T01:07:07.112Z,102818.44
2022-12-01T01:09:33.593Z,102820.03
2022-12-01T01:12:00.076Z,102828.66
2022-12-01T01:14:26.584Z,102825.44
2022-12-01T01:16:54.108Z,102832.16
2022-12-01T01:19:20.561Z,102831.34
2022-12-01T01:21:46.988Z,102835.94
2022-12-01T01:24:13.415Z,102834.59
2022-12-01T01:26:39.808Z,102837.03
2022-12-01T01:29:10.009Z,102832.16
2022-12-01T01:31:36.564Z,102837.03
2022-12-01T01:34:03.809Z,102827.59
2022-12-01T01:36:30.526Z,102839.44
2022-12-01T01:38:57.102Z,102844.31
2022-12-01T01:41:24.103Z,102850.50
2022-12-01T01:43:55.643Z,102847.28
2022-12-01T01:46:28.184Z,102837.31
2022-12-01T01:49:05.915Z,102840.00
2022-12-01T01:51:53.514Z,102849.41
2022-12-01T01:54:31.525Z,102858.06
2022-12-01T01:57:00.598Z,102844.84
2022-12-01T01:59:31.671Z,102841.09
2022-12-01T02:02:09.661Z,102844.31
2022-12-01T02:04:40.443Z,102847.53
2022-12-01T02:07:08.456Z,102848.06
2022-12-01T02:09:36.140Z,102845.13
2022-12-01T02:12:25.932Z,102844.06
2022-12-01T02:15:07.646Z,102845.38
2022-12-01T02:17:44.969Z,102842.16
2022-12-01T02:20:23.742Z,102840.53
2022-12-01T02:23:18.346Z,102840.00
2022-12-01T02:26:01.943Z,102836.50
2022-12-01T02:28:56.368Z,102831.91
2022-12-01T02:31:39.635Z,102828.16
2022-12-01T02:34:14.789Z,102830.28
2022-12-01T02:36:54.396Z,102832.19
2022-12-01T02:39:33.563Z,102832.72
2022-12-01T02:42:35.243Z,102833.00
2022-12-01T02:45:05.933Z,102835.69
2022-12-01T02:47:34.613Z,102831.66
2022-12-01T02:50:02.172Z,102831.09
2022-12-01T02:52:29.011Z,102833.28
2022-12-01T02:54:56.806Z,102835.13
2022-12-01T02:57:24.156Z,102832.72
2022-12-01T02:59:55.120Z,102839.75
2022-12-01T03:02:34.036Z,102841.38
2022-12-01T03:05:28.110Z,102834.88
2022-12-01T03:08:06.981Z,102843.78
2022-12-01T03:10:56.295Z,102844.03
2022-12-01T03:13:46.731Z,102847.28
2022-12-01T03:16:16.385Z,102837.88
2022-12-01T03:19:07.107Z,102838.94
2022-12-01T03:21:40.458Z,102843.50
2022-12-01T03:24:23.813Z,102849.16
2022-12-01T03:26:56.989Z,102854.84
2022-12-01T03:29:36.409Z,102850.25
2022-12-01T03:32:08.313Z,102843.50
2022-12-01T03:34:44.145Z,102841.88
2022-12-01T03:37:18.231Z,102846.75
2022-12-01T03:39:47.943Z,102838.09
2022-12-01T03:42:25.219Z,102847.56
2022-12-01T03:44:59.639Z,102843.25
2022-12-01T03:47:31.978Z,102845.13
2022-12-01T03:50:00.392Z,102844.84
2022-12-01T03:52:38.896Z,102840.56
2022-12-01T03:55:09.180Z,102838.38
2022-12-01T03:57:58.946Z,102846.22
2022-12-01T04:00:25.533Z,102843.78
2022-12-01T04:02:56.723Z,102843.78
2022-12-01T04:05:25.421Z,102833.00
2022-12-01T04:07:53.336Z,102837.31
2022-12-01T04:10:20.026Z,102847.03
2022-12-01T04:12:46.528Z,102847.03
2022-12-01T04:15:14.473Z,102841.09
2022-12-01T04:17:45.113Z,102852.69
2022-12-01T04:20:17.686Z,102845.69
2022-12-01T04:22:44.419Z,102845.69
2022-12-01T04:25:11.683Z,102838.66
2022-12-01T04:27:38.950Z,102849.19
2022-12-01T04:30:07.433Z,102851.88
2022-12-01T04:32:38.797Z,102853.78
2022-12-01T04:35:06.991Z,102851.34
2022-12-01T04:37:33.672Z,102852.13
2022-12-01T04:40:00.115Z,102848.91
2022-12-01T04:42:27.492Z,102845.41
2022-12-01T04:44:53.990Z,102852.69
2022-12-01T04:47:20.425Z,102856.72
2022-12-01T04:49:47.094Z,102855.66
2022-12-01T04:52:13.809Z,102847.84
2022-12-01T04:54:40.422Z,102843.78
2022-12-01T04:57:06.934Z,102850.78
2022-12-01T04:59:33.468Z,102855.91
2022-12-01T05:01:59.981Z,102857.28
2022-12-01T05:04:26.512Z,102855.91
2022-12-01T05:06:55.643Z,102858.88
2022-12-01T05:09:22.119Z,102850.78
2022-12-01T05:11:48.539Z,102848.88
2022-12-01T05:14:15.072Z,102851.34
2022-12-01T05:16:41.568Z,102847.03
2022-12-01T05:19:26.601Z,102853.22
2022-12-01T05:21:53.125Z,102850.25
2022-12-01T05:24:20.960Z,102845.94
2022-12-01T05:26:47.796Z,102855.66
2022-12-01T05:29:14.608Z,102846.47
2022-12-01T05:31:41.261Z,102854.31
2022-12-01T05:34:08.765Z,102850.81
2022-12-01T05:36:35.373Z,102853.50
2022-12-01T05:39:01.927Z,102855.94
2022-12-01T05:41:28.435Z,102856.19
2022-12-01T05:43:54.897Z,102857.00
2022-12-01T05:46:21.362Z,102859.44
2022-12-01T05:48:47.941Z,102853.75
2022-12-01T05:51:16.673Z,102854.28
2022-12-01T05:53:43.466Z,102853.75
2022-12-01T05:56:10.652Z,102847.00
2022-12-01T05:58:37.112Z,102859.41
2022-12-01T06:01:03.940Z,102863.47
2022-12-01T06:03:30.364Z,102852.97
2022-12-01T06:05:56.887Z,102860.25
2022-12-01T06:08:23.473Z,102863.75
2022-12-01T06:10:49.887Z,102862.13
2022-12-01T06:13:16.353Z,102871.00
2022-12-01T06:15:42.835Z,102861.84
2022-12-01T06:18:09.539Z,102869.94
2022-12-01T06:20:36.052Z,102875.06
2022-12-01T06:23:02.942Z,102867.00
2022-12-01T06:25:29.450Z,102868.88
2022-12-01T06:27:57.732Z,102860.75
2022-12-01T06:30:25.314Z,102855.63
2022-12-01T06:32:51.855Z,102853.50
2022-12-01T06:35:18.614Z,102852.16
2022-12-01T06:37:45.081Z,102857.25
2022-12-01T06:40:12.265Z,102859.69
2022-12-01T06:42:38.742Z,102858.84
2022-12-01T06:45:05.596Z,102861.50
2022-12-01T06:47:32.045Z,102855.88
2022-12-01T06:49:58.494Z,102858.56
2022-12-01T06:52:24.934Z,102865.03
2022-12-01T06:54:51.458Z,102872.28
2022-12-01T06:57:18.206Z,102879.53
2022-12-01T06:59:45.275Z,102876.56
2022-12-01T07:02:12.119Z,102886.22
2022-12-01T07:04:38.660Z,102884.56
2022-12-01T07:07:06.279Z,102893.72
2022-12-01T07:09:32.960Z,102894.47
2022-12-01T07:11:59.677Z,102901.75
2022-12-01T07:14:26.772Z,102890.44
2022-12-01T07:16:53.408Z,102899.28
2022-12-01T07:19:20.097Z,102901.97
2022-12-01T07:21:46.534Z,102902.19
2022-12-01T07:24:13.327Z,102907.78
2022-12-01T07:26:41.217Z,102906.72
2022-12-01T07:29:09.214Z,102905.59
2022-12-01T07:31:36.828Z,102911.78
2022-12-01T07:34:03.977Z,102912.31
2022-12-01T07:36:30.697Z,102912.00
2022-12-01T07:38:57.212Z,102920.31
2022-12-01T07:41:23.743Z,102922.22
2022-12-01T07:43:50.567Z,102922.16
2022-12-01T07:46:24.181Z,102915.97
2022-12-01T07:48:52.120Z,102913.84
2022-12-01T07:51:19.508Z,102922.47
2022-12-01T07:53:49.233Z,102922.47
2022-12-01T07:56:16.330Z,102921.13
2022-12-01T07:58:42.832Z,102932.13
2022-12-01T08:01:14.985Z,102933.44
2022-12-01T08:03:42.405Z,102934.78
2022-12-01T08:06:09.906Z,102940.44
2022-12-01T08:08:37.707Z,102935.84
2022-12-01T08:11:07.289Z,102944.00
2022-12-01T08:13:34.274Z,102946.69
2022-12-01T08:16:04.678Z,102941.03
2022-12-01T08:18:31.251Z,102941.59
2022-12-01T08:20:58.320Z,102945.63
2022-12-01T08:23:24.771Z,102940.84
2022-12-01T08:25:52.562Z,102943.06
2022-12-01T08:28:19.863Z,102939.88
2022-12-01T08:30:47.199Z,102949.84
2022-12-01T08:33:14.052Z,102947.16
2022-12-01T08:35:40.614Z,102960.91
2022-12-01T08:38:07.042Z,102950.22
2022-12-01T08:40:33.519Z,102958.09
2022-12-01T08:42:59.964Z,102962.38
2022-12-01T08:45:26.404Z,102967.00
2022-12-01T08:47:53.914Z,102963.50
2022-12-01T08:50:20.414Z,102966.72
2022-12-01T08:52:46.861Z,102956.19
2022-12-01T08:55:13.344Z,102957.06
2022-12-01T08:57:39.810Z,102963.28
2022-12-01T09:00:06.988Z,102963.59
2022-12-01T09:02:33.533Z,102959.28
2022-12-01T09:05:00.048Z,102966.59
2022-12-01T09:07:27.093Z,102963.38
2022-12-01T09:09:53.737Z,102967.69
2022-12-01T09:12:20.157Z,102965.81
2022-12-01T09:14:49.831Z,102955.31
2022-12-01T09:17:18.011Z,102957.75
2022-12-01T09:19:44.699Z,102965.03
2022-12-01T09:22:12.012Z,102964.81
2022-12-01T09:24:38.813Z,102965.38
2022-12-01T09:27:05.864Z,102962.16
2022-12-01T09:29:32.776Z,102968.94
2022-12-01T09:32:00.407Z,102968.41
2022-12-01T09:34:27.883Z,102966.75
2022-12-01T09:36:58.508Z,102965.13
2022-12-01T09:39:25.546Z,102968.88
2022-12-01T09:42:16.309Z,102967.25
2022-12-01T09:44:48.488Z,102960.28
2022-12-01T09:47:29.172Z,102960.53
2022-12-01T09:50:13.219Z,102951.88
2022-12-01T09:52:46.436Z,102946.22
2022-12-01T09:55:16.298Z,102946.78
2022-12-01T09:57:46.693Z,102949.75
2022-12-01T10:00:18.084Z,102940.34
2022-12-01T10:02:52.761Z,102934.94
2022-12-01T10:05:22.246Z,102929.84
2022-12-01T10:07:57.490Z,102926.06
2022-12-01T10:10:24.237Z,102920.41
2022-12-01T10:12:50.773Z,102929.56
2022-12-01T10:15:39.549Z,102923.91
2022-12-01T10:18:31.704Z,102919.88
2022-12-01T10:21:29.137Z,102922.84
2022-12-01T10:24:10.043Z,102920.41
2022-12-01T10:26:50.852Z,102932.00
2022-12-01T10:29:48.032Z,102923.06
2022-12-01T10:32:23.374Z,102923.06
2022-12-01T10:34:49.854Z,102929.03
2022-12-01T10:37:25.895Z,102926.59
2022-12-01T10:39:54.965Z,102920.41
2022-12-01T10:42:32.597Z,102927.41
2022-12-01T10:45:09.919Z,102925.81
2022-12-01T10:47:36.369Z,102932.25
2022-12-01T10:50:04.482Z,102934.41
2022-12-01T10:52:39.886Z,102930.06
2022-12-01T10:55:26.852Z,102928.75
2022-12-01T10:58:03.462Z,102924.97
2022-12-01T11:03:29.289Z,102939.81
2022-12-01T11:05:58.533Z,102938.72
2022-12-01T11:08:31.039Z,102931.44
2022-12-01T11:10:57.508Z,102930.38
2022-12-01T11:13:30.447Z,102926.03
2022-12-01T11:16:02.803Z,102930.34
2022-12-01T11:18:33.595Z,102933.03
2022-12-01T11:21:14.071Z,102923.56
2022-12-01T11:23:51.945Z,102912.75
2022-12-01T11:26:26.369Z,102920.31
2022-12-01T11:28:56.842Z,102907.56
2022-12-01T11:31:38.207Z,102905.63
2022-12-01T11:34:05.596Z,102906.69
2022-12-01T11:36:42.372Z,102902.34
2022-12-01T11:39:28.088Z,102891.53
2022-12-01T11:42:00.585Z,102901.59
2022-12-01T11:44:50.374Z,102898.88
2022-12-01T11:47:23.651Z,102887.75
2022-12-01T11:49:59.138Z,102886.66
2022-12-01T11:52:28.329Z,102880.16
2022-12-01T11:55:00.018Z,102877.97
2022-12-01T11:57:34.671Z,102876.31
2022-12-01T12:00:05.869Z,102877.34
2022-12-01T12:02:43.673Z,102876.03
2022-12-01T12:05:16.038Z,102871.41
2022-12-01T12:07:48.273Z,102859.00
2022-12-01T12:10:30.075Z,102866.84
2022-12-01T12:13:24.241Z,102877.66
2022-12-01T12:16:26.408Z,102865.75
2022-12-01T12:19:07.258Z,102865.13
2022-12-01T12:21:44.922Z,102854.84
2022-12-01T12:24:26.352Z,102862.97
2022-12-01T12:26:58.892Z,102856.22
2022-12-01T12:29:42.982Z,102854.94
2022-12-01T12:32:36.511Z,102848.19
2022-12-01T12:35:09.868Z,102853.94
2022-12-01T12:38:11.554Z,102851.75
2022-12-01T12:40:47.165Z,102845.22
2022-12-01T12:43:31.492Z,102859.50
2022-12-01T12:46:11.732Z,102854.31
2022-12-01T12:49:18.813Z,102853.72
2022-12-01T12:51:56.131Z,102849.13
2022-12-01T12:54:33.500Z,102844.78
2022-12-01T12:57:26.274Z,102848.38
2022-12-01T13:00:07.174Z,102846.19
2022-12-01T13:03:01.641Z,102841.38
2022-12-01T13:05:40.301Z,102836.41
2022-12-01T13:08:28.565Z,102833.13
2022-12-01T13:11:11.448Z,102838.59
2022-12-01T13:14:04.063Z,102834.25
2022-12-01T13:16:44.313Z,102828.28
2022-12-01T13:19:16.602Z,102818.88
2022-12-01T13:21:45.212Z,102816.13
2022-12-01T13:24:23.374Z,102817.88
2022-12-01T13:26:55.522Z,102815.09
2022-12-01T13:29:24.622Z,102817.25
2022-12-01T13:31:53.257Z,102816.66
2022-12-01T13:34:29.093Z,102823.66
2022-12-01T13:36:56.406Z,102827.38
2022-12-01T13:39:28.983Z,102813.13
2022-12-01T13:42:27.016Z,102817.19
2022-12-01T13:44:56.977Z,102820.69
2022-12-01T13:47:38.768Z,102815.88
2022-12-01T13:50:38.961Z,102814.28
2022-12-01T13:53:17.718Z,102817.25
2022-12-01T13:56:06.963Z,102817.75
2022-12-01T13:58:33.364Z,102816.06
2022-12-01T14:01:21.965Z,102816.28
2022-12-01T14:03:58.054Z,102821.84
2022-12-01T14:06:30.680Z,102813.88
2022-12-01T14:09:05.028Z,102818.81
2022-12-01T14:11:34.526Z,102817.41
2022-12-01T14:14:12.267Z,102818.13
2022-12-01T14:16:49.835Z,102808.59
2022-12-01T14:19:28.527Z,102818.91
2022-12-01T14:21:55.037Z,102817.81
2022-12-01T14:24:28.403Z,102812.81
2022-12-01T14:26:55.563Z,102804.00
2022-12-01T14:29:31.315Z,102805.38
2022-12-01T14:32:00.849Z,102802.69
2022-12-01T14:34:31.601Z,102801.72
2022-12-01T14:37:09.862Z,102810.66
2022-12-01T14:39:43.668Z,102802.84
2022-12-01T14:42:47.527Z,102807.25
2022-12-01T14:45:22.562Z,102804.81
2022-12-01T14:48:08.429Z,102811.81
2022-12-01T14:50:46.417Z,102814.44
2022-12-01T14:53:31.136Z,102812.66
2022-12-01T14:56:08.313Z,102813.84
2022-12-01T14:58:34.927Z,102819.25
2022-12-01T15:01:10.203Z,102812.09
2022-12-01T15:03:47.206Z,102816.84
2022-12-01T15:06:22.385Z,102814.47
2022-12-01T15:09:32.050Z,102815.81
2022-12-01T15:12:00.440Z,102817.72
2022-12-01T15:14:32.760Z,102828.59
2022-12-01T15:16:59.623Z,102830.19
2022-12-01T15:19:36.782Z,102828.72
2022-12-01T15:22:14.552Z,102829.59
2022-12-01T15:24:41.674Z,102819.53
2022-12-01T15:27:32.373Z,102815.78
2022-12-01T15:30:04.192Z,102813.97
2022-12-01T15:32:34.408Z,102816.16
2022-12-01T15:35:03.494Z,102812.72
2022-12-01T15:37:40.557Z,102806.84
2022-12-01T15:40:59.737Z,102830.13
2022-12-01T15:43:14.316Z,102823.94
2022-12-01T15:45:50.920Z,102826.41
2022-12-01T15:48:26.849Z,102832.63
2022-12-01T15:51:03.564Z,102830.75
2022-12-01T15:53:33.408Z,102830.75
2022-12-01T15:56:03.063Z,102824.31
2022-12-01T15:58:32.943Z,102824.00
2022-12-01T16:01:02.058Z,102823.75
2022-12-01T16:03:28.956Z,102829.69
2022-12-01T16:05:56.230Z,102836.72
2022-12-01T16:08:27.896Z,102839.16
2022-12-01T16:11:11.187Z,102841.06
2022-12-01T16:13:47.875Z,102840.53
2022-12-01T16:17:02.066Z,102837.28
2022-12-01T16:19:33.563Z,102837.28
2022-12-01T16:22:12.423Z,102836.22
2022-12-01T16:24:52.667Z,102838.38
2022-12-01T16:27:25.544Z,102841.09
2022-12-01T16:30:01.666Z,102835.97
2022-12-01T16:32:40.124Z,102841.63
2022-12-01T16:35:23.110Z,102839.19
2022-12-01T16:37:49.544Z,102835.72
2022-12-01T16:40:19.375Z,102836.78
2022-12-01T16:42:46.857Z,102834.59
2022-12-01T16:45:14.935Z,102837.28
2022-12-01T16:47:42.468Z,102834.59
2022-12-01T16:50:20.413Z,102832.44
2022-12-01T16:52:47.054Z,102830.56
2022-12-01T16:55:31.632Z,102828.69
2022-12-01T16:57:58.108Z,102835.41
2022-12-01T17:00:25.001Z,102831.38
2022-12-01T17:02:52.704Z,102823.00
2022-12-01T17:05:19.412Z,102827.31
2022-12-01T17:07:46.038Z,102835.13
2022-12-01T17:10:12.792Z,102827.59
2022-12-01T17:12:39.736Z,102829.50
2022-12-01T17:15:06.706Z,102828.94
2022-12-01T17:17:33.408Z,102820.28
2022-12-01T17:19:59.876Z,102829.47
2022-12-01T17:22:26.308Z,102827.06
2022-12-01T17:24:54.697Z,102834.31
2022-12-01T17:27:22.276Z,102826.78
2022-12-01T17:29:48.853Z,102833.81
2022-12-01T17:32:15.495Z,102825.97
2022-12-01T17:34:41.953Z,102830.84
2022-12-01T17:37:08.388Z,102823.28
2022-12-01T17:39:34.882Z,102835.13
2022-12-01T17:42:01.386Z,102834.06
2022-12-01T17:44:27.852Z,102823.28
2022-12-01T17:46:54.410Z,102832.19
2022-12-01T17:49:21.258Z,102833.53
2022-12-01T17:51:47.844Z,102827.06
2022-12-01T17:54:14.488Z,102815.75
2022-12-01T17:56:41.034Z,102815.47
2022-12-01T17:59:07.520Z,102828.97
2022-12-01T18:01:34.150Z,102818.69
2022-12-01T18:04:00.706Z,102815.47
2022-12-01T18:06:27.616Z,102823.53
2022-12-01T18:08:54.953Z,102819.75
2022-12-01T18:11:22.106Z,102826.81
2022-12-01T18:13:50.456Z,102831.09
2022-12-01T18:16:29.071Z,102835.41
2022-12-01T18:18:57.554Z,102822.22
2022-12-01T18:21:25.485Z,102818.16
2022-12-01T18:23:54.965Z,102823.28
2022-12-01T18:26:22.812Z,102827.59
2022-12-01T18:29:01.040Z,102817.91
2022-12-01T18:31:29.153Z,102828.94
2022-12-01T18:33:59.182Z,102818.69
2022-12-01T18:36:26.480Z,102826.78
2022-12-01T18:38:54.564Z,102821.66
2022-12-01T18:41:21.525Z,102830.03
2022-12-01T18:43:48.113Z,102821.13
2022-12-01T18:46:16.599Z,102819.25
2022-12-01T18:48:52.019Z,102821.94
2022-12-01T18:51:19.325Z,102818.44
2022-12-01T18:53:46.136Z,102824.09
2022-12-01T18:56:15.214Z,102826.25
2022-12-01T18:58:42.327Z,102821.66
2022-12-01T19:01:24.439Z,102824.34
2022-12-01T19:03:51.421Z,102824.38
2022-12-01T19:06:18.345Z,102822.19
2022-12-01T19:08:44.872Z,102824.09
2022-12-01T19:11:11.308Z,102818.44
2022-12-01T19:13:37.832Z,102819.25
2022-12-01T19:16:26.588Z,102822.47
2022-12-01T19:18:53.298Z,102823.28
2022-12-01T19:21:20.281Z,102822.47
2022-12-01T19:23:46.929Z,102825.44
2022-12-01T19:26:16.165Z,102833.53
2022-12-01T19:28:45.361Z,102821.13
2022-12-01T19:31:17.675Z,102817.88
2022-12-01T19:33:44.684Z,102817.34
2022-12-01T19:36:13.945Z,102824.06
2022-12-01T19:38:41.042Z,102826.53
2022-12-01T19:41:09.202Z,102815.97
2022-12-01T19:43:36.386Z,102815.72
2022-12-01T19:46:11.823Z,102812.47
2022-12-01T19:48:38.671Z,102820.53
2022-12-01T19:51:05.462Z,102813.81
2022-12-01T19:53:34.006Z,102805.72
2022-12-01T19:56:05.023Z,102815.41
2022-12-01T19:58:34.787Z,102822.41
2022-12-01T20:01:06.659Z,102821.09
2022-12-01T20:03:33.730Z,102825.69
2022-12-01T20:06:05.296Z,102818.09
2022-12-01T20:08:35.666Z,102824.84
2022-12-01T20:11:05.986Z,102822.69
2022-12-01T20:13:34.017Z,102817.84
2022-12-01T20:16:05.650Z,102821.91
2022-12-01T20:18:32.221Z,102826.75
2022-12-01T20:21:05.754Z,102813.81
2022-12-01T20:23:33.166Z,102819.44
2022-12-01T20:26:05.614Z,102826.44
2022-12-01T20:28:32.845Z,102831.31
2022-12-01T20:30:59.673Z,102816.22
2022-12-01T20:33:26.802Z,102821.06
2022-12-01T20:35:53.306Z,102820.78
2022-12-01T20:38:25.764Z,102825.06
2022-12-01T20:40:53.822Z,102815.09
2022-12-01T20:43:20.324Z,102820.78
2022-12-01T20:45:46.932Z,102820.25
2022-12-01T20:48:14.129Z,102824.31
2022-12-01T20:50:40.715Z,102831.06
2022-12-01T20:53:07.401Z,102832.69
2022-12-01T20:55:36.135Z,102819.47
2022-12-01T20:58:04.203Z,102824.59
2022-12-01T21:00:31.503Z,102826.47
2022-12-01T21:02:57.963Z,102813.25
2022-12-01T21:05:25.494Z,102810.84
2022-12-01T21:07:52.041Z,102814.31
2022-12-01T21:10:20.298Z,102808.13
2022-12-01T21:13:09.393Z,102801.13
2022-12-01T21:15:46.330Z,102802.72
2022-12-01T21:18:21.192Z,102800.31
2022-12-01T21:20:50.589Z,102804.66
2022-12-01T21:23:17.337Z,102798.97
2022-12-01T21:25:44.790Z,102802.72
2022-12-01T21:28:20.191Z,102798.13
2022-12-01T21:30:48.180Z,102795.44
2022-12-01T21:33:27.516Z,102790.06
2022-12-01T21:35:55.826Z,102788.69
2022-12-01T21:38:22.803Z,102781.47
2022-12-01T21:40:49.460Z,102781.19
2022-12-01T21:43:24.360Z,102778.50
2022-12-01T21:46:00.384Z,102775.53
2022-12-01T21:48:34.069Z,102776.34
2022-12-01T21:51:02.354Z,102774.72
2022-12-01T21:53:36.205Z,102769.28
2022-12-01T21:56:03.053Z,102767.41
2022-12-01T21:58:36.287Z,102760.94
2022-12-01T22:01:26.115Z,102761.78
2022-12-01T22:04:00.535Z,102770.38
2022-12-01T22:06:40.926Z,102770.41
2022-12-01T22:09:42.880Z,102767.16
2022-12-01T22:12:27.581Z,102768.25
2022-12-01T22:15:00.089Z,102770.94
2022-12-01T22:17:27.732Z,102757.47
2022-12-01T22:20:00.030Z,102761.47
2022-12-01T22:22:28.921Z,102765.28
2022-12-01T22:24:59.315Z,102765.28
2022-12-01T22:27:43.238Z,102766.88
2022-12-01T22:30:09.601Z,102770.13
2022-12-01T22:32:56.309Z,102757.22
2022-12-01T22:35:31.588Z,102761.78
2022-12-01T22:38:07.107Z,102758.78
2022-12-01T22:40:36.380Z,102759.06
2022-12-01T22:43:18.143Z,102751.00
2022-12-01T22:46:11.728Z,102754.78
2022-12-01T22:48:47.630Z,102759.06
2022-12-01T22:51:14.040Z,102759.34
2022-12-01T22:53:41.989Z,102756.13
2022-12-01T22:56:26.275Z,102759.06
2022-12-01T22:58:53.433Z,102756.38
2022-12-01T23:01:33.561Z,102765.00
2022-12-01T23:04:22.533Z,102759.63
2022-12-01T23:06:48.933Z,102762.31
2022-12-01T23:09:15.557Z,102755.84
2022-12-01T23:11:50.893Z,102755.59
2022-12-01T23:14:21.253Z,102761.00
2022-12-01T23:16:48.203Z,102755.31
2022-12-01T23:19:14.649Z,102756.94
2022-12-01T23:21:41.110Z,102752.34
2022-12-01T23:24:13.016Z,102746.72
2022-12-01T23:26:39.466Z,102738.34
2022-12-01T23:29:05.884Z,102736.47
2022-12-01T23:31:32.507Z,102739.16
2022-12-01T23:33:59.113Z,102737.56
2022-12-01T23:36:28.918Z,102733.22
2022-12-01T23:39:02.480Z,102739.44
2022-12-01T23:41:38.759Z,102740.50
2022-12-01T23:44:20.288Z,102726.75
2022-12-01T23:46:49.770Z,102728.38
2022-12-01T23:49:20.216Z,102735.38
2022-12-01T23:51:59.210Z,102730.81
2022-12-01T23:54:34.573Z,102719.50
2022-12-01T23:57:04.157Z,102721.91
2022-12-01T23:59:31.936Z,102723.00
